Time;durP1;ratioP1;P1;durP2;ratioP2;P2;SDS_P1;SDS_P2;PMS_P1;PMS_P2;Temp;Humidity;BMP_temperature;BMP_pressure;BME280_temperature;BME280_humidity;BME280_pressure;Samples;Min_cycle;Max_cycle;Signal;HPM_P1;HPM_P2
2023/04/24 00:00:23;;;;;;;7.47;4.03;;;8.20;99.90;;;7.30;100.00;100760.44;4153162;28;20022;-79
2023/04/24 00:02:25;;;;;;;10.52;4.32;;;8.20;99.90;;;7.26;100.00;100759.88;4137036;28;20228;-79
2023/04/24 00:04:26;;;;;;;11.88;4.78;;;8.10;99.90;;;7.21;100.00;100752.41;4137154;28;20049;-79
2023/04/24 00:06:33;;;;;;;13.65;4.45;;;8.10;99.90;;;7.15;100.00;100752.94;4138218;28;20041;-79
2023/04/24 00:08:36;;;;;;;10.88;3.95;;;8.10;99.90;;;7.22;100.00;100774.25;4153261;28;20025;-79
2023/04/24 00:10:37;;;;;;;8.88;4.43;;;8.00;99.90;;;7.06;100.00;100753.75;4136811;28;20457;-79
2023/04/24 00:12:38;;;;;;;8.80;4.20;;;8.00;99.90;;;7.17;100.00;100779.03;4128232;28;20037;-78
2023/04/24 00:14:39;;;;;;;8.77;4.75;;;8.00;99.90;;;7.18;100.00;100768.41;4136737;28;20033;-79
2023/04/24 00:16:40;;;;;;;10.45;4.40;;;8.00;99.90;;;7.27;100.00;100772.03;4136913;28;20018;-79
2023/04/24 00:18:41;;;;;;;9.23;4.05;;;8.10;99.90;;;7.46;100.00;100790.47;4120701;28;20034;-79
2023/04/24 00:20:43;;;;;;;14.40;4.72;;;8.20;99.90;;;7.52;100.00;100784.69;4127210;28;20027;-78
2023/04/24 00:22:44;;;;;;;9.75;4.05;;;8.30;99.90;;;7.65;100.00;100790.47;4120646;28;20030;-79
2023/04/24 00:24:45;;;;;;;10.98;4.00;;;8.40;99.90;;;7.75;100.00;100782.63;4133593;28;20026;-79
2023/04/24 00:26:46;;;;;;;10.02;4.38;;;8.50;99.90;;;7.92;100.00;100786.34;4136293;28;20038;-78
2023/04/24 00:28:47;;;;;;;9.82;4.20;;;8.60;99.90;;;7.93;100.00;100775.72;4120640;28;20030;-79
2023/04/24 00:30:48;;;;;;;9.32;4.43;;;8.70;99.90;;;8.01;100.00;100777.66;4136641;28;20056;-79
2023/04/24 00:32:49;;;;;;;12.63;4.32;;;8.80;99.90;;;8.06;100.00;100776.28;4131964;28;20027;-79
2023/04/24 00:34:49;;;;;;;11.00;4.25;;;8.90;99.90;;;8.14;100.00;100786.91;4136580;28;20029;-79
2023/04/24 00:36:52;;;;;;;11.93;4.82;;;9.00;99.90;;;8.26;100.00;100787.59;4137829;28;20026;-79
2023/04/24 00:38:53;;;;;;;12.80;4.47;;;9.00;99.90;;;8.23;100.00;100777.38;4136562;28;20034;-79
2023/04/24 00:40:54;;;;;;;13.93;4.20;;;9.10;99.90;;;8.32;100.00;100794.97;4131710;28;20113;-78
2023/04/24 00:42:56;;;;;;;12.13;4.53;;;9.10;99.90;;;8.42;100.00;100803.66;4135235;28;20453;-79
2023/04/24 00:44:57;;;;;;;6.30;3.35;;;9.20;99.90;;;8.33;100.00;100778.22;4120120;28;20055;-79
2023/04/24 00:46:58;;;;;;;11.10;5.15;;;9.20;99.90;;;8.35;100.00;100784.16;4120409;28;20069;-79
2023/04/24 00:48:59;;;;;;;15.35;4.68;;;9.20;99.90;;;8.48;100.00;100783.88;4116160;28;20038;-79
2023/04/24 00:51:01;;;;;;;10.43;4.28;;;9.30;99.90;;;8.40;100.00;100773.22;4136286;28;20040;-79
2023/04/24 00:53:01;;;;;;;15.68;4.38;;;9.30;99.90;;;8.53;100.00;100787.72;4125454;28;20062;-79
2023/04/24 00:55:03;;;;;;;10.25;4.35;;;9.30;99.90;;;8.50;100.00;100779.28;4137426;28;20494;-79
2023/04/24 00:57:04;;;;;;;14.85;4.43;;;9.30;99.90;;;8.42;100.00;100769.50;4120031;28;20019;-79
2023/04/24 00:59:06;;;;;;;8.40;4.68;;;9.40;99.90;;;8.41;100.00;100775.72;4137444;28;20096;-79
2023/04/24 01:01:07;;;;;;;11.07;3.50;;;9.30;99.90;;;8.44;100.00;100785.94;4136055;28;20081;-78
2023/04/24 01:03:08;;;;;;;9.50;4.05;;;9.30;99.90;;;8.36;100.00;100777.94;4138017;28;20042;-79
2023/04/24 01:05:09;;;;;;;8.65;3.60;;;9.30;99.90;;;8.42;100.00;100808.94;4137413;28;20389;-79
2023/04/24 01:07:11;;;;;;;11.65;4.70;;;9.20;99.90;;;8.36;100.00;100798.97;4135890;28;20089;-79
2023/04/24 01:09:14;;;;;;;9.55;4.43;;;9.20;99.90;;;8.22;100.00;100784.41;4135853;28;20081;-79
2023/04/24 01:11:15;;;;;;;11.32;4.47;;;9.10;99.90;;;8.21;100.00;100795.88;4137065;28;20041;-79
2023/04/24 01:13:16;;;;;;;15.15;4.85;;;9.10;99.90;;;8.21;100.00;100801.13;4124999;28;20075;-78
2023/04/24 01:15:16;;;;;;;11.98;4.40;;;9.00;99.90;;;8.14;100.00;100797.44;4119777;28;20499;-79
2023/04/24 01:17:17;;;;;;;13.48;5.30;;;9.00;99.90;;;8.14;100.00;100807.09;4124301;28;20022;-79
2023/04/24 01:19:19;;;;;;;13.73;4.25;;;8.90;99.90;;;8.01;100.00;100790.78;4128542;28;20030;-79
2023/04/24 01:21:23;;;;;;;9.70;4.57;;;8.80;99.90;;;7.99;100.00;100792.72;4146590;28;20387;-79
2023/04/24 01:23:24;;;;;;;12.80;5.05;;;8.80;99.90;;;7.88;100.00;100811.25;4151865;28;20033;-79
2023/04/24 01:25:27;;;;;;;10.82;4.45;;;8.70;99.90;;;7.79;100.00;100807.66;4137203;28;20060;-79
2023/04/24 01:27:28;;;;;;;13.10;4.68;;;8.60;99.90;;;7.63;100.00;100789.78;4151620;28;20038;-79
2023/04/24 01:29:29;;;;;;;12.43;4.55;;;8.60;99.90;;;7.59;100.00;100801.53;4124952;28;20027;-79
2023/04/24 01:31:31;;;;;;;12.65;4.57;;;8.50;99.90;;;7.55;100.00;100812.44;4135614;28;20034;-79
2023/04/24 01:33:33;;;;;;;17.77;6.30;;;8.40;99.90;;;7.46;100.00;100808.00;4135763;28;20548;-79
2023/04/24 01:35:35;;;;;;;12.60;4.15;;;8.40;99.90;;;7.53;100.00;100830.94;4135520;28;20196;-79
2023/04/24 01:37:39;;;;;;;13.27;4.72;;;8.30;99.90;;;7.44;100.00;100813.38;4135587;28;20018;-79
2023/04/24 01:39:40;;;;;;;11.73;4.43;;;8.30;99.90;;;7.33;100.00;100813.47;4119398;28;20623;-79
2023/04/24 01:41:41;;;;;;;14.32;4.90;;;8.30;99.90;;;7.42;100.00;100817.94;4125843;28;20122;-79
2023/04/24 01:43:42;;;;;;;14.43;4.85;;;8.20;99.90;;;7.35;100.00;100819.41;4128511;28;20041;-79
2023/04/24 01:45:43;;;;;;;18.60;5.03;;;8.20;99.90;;;7.34;100.00;100819.56;4130807;28;20078;-79
2023/04/24 01:47:45;;;;;;;11.90;4.20;;;8.10;99.90;;;7.23;100.00;100816.06;4133305;28;20506;-78
2023/04/24 01:49:47;;;;;;;9.52;3.90;;;8.10;99.90;;;7.26;100.00;100817.59;4124529;28;20080;-79
2023/04/24 01:51:49;;;;;;;13.20;4.32;;;8.10;99.90;;;7.17;100.00;100800.03;4127737;28;20048;-79
2023/04/24 01:53:50;;;;;;;14.75;4.97;;;8.10;99.90;;;7.08;100.00;100795.56;4135807;28;20101;-79
2023/04/24 01:55:51;;;;;;;12.27;4.57;;;8.10;99.90;;;7.21;100.00;100818.00;4136187;28;20072;-79
2023/04/24 01:57:55;;;;;;;24.50;5.30;;;8.00;99.90;;;7.18;100.00;100813.03;4119175;28;20507;-79
2023/04/24 01:59:56;;;;;;;13.07;5.55;;;8.00;99.90;;;7.10;100.00;100810.25;4143656;28;20026;-79
2023/04/24 02:01:57;;;;;;;16.88;4.80;;;8.00;99.90;;;7.05;100.00;100801.91;4135396;28;20038;-79
2023/04/24 02:03:58;;;;;;;14.57;5.22;;;8.00;99.90;;;7.10;100.00;100815.47;4131795;28;20073;-79
2023/04/24 02:05:59;;;;;;;10.18;4.40;;;7.90;99.90;;;6.98;100.00;100797.34;4119219;28;20031;-79
2023/04/24 02:08:00;;;;;;;9.73;4.43;;;7.90;99.90;;;7.05;100.00;100814.19;4127557;28;20030;-79
2023/04/24 02:10:01;;;;;;;12.02;4.78;;;7.90;99.90;;;6.95;100.00;100813.34;4130525;28;20529;-79
2023/04/24 02:12:02;;;;;;;10.38;4.38;;;7.80;99.90;;;7.00;100.00;100822.47;4134727;28;20035;-79
2023/04/24 02:14:03;;;;;;;12.10;5.00;;;7.80;99.90;;;6.95;100.00;100819.41;4151356;28;20425;-79
2023/04/24 02:16:04;;;;;;;16.95;5.47;;;7.80;99.90;;;6.92;100.00;100810.97;4135224;28;20022;-79
2023/04/24 02:18:06;;;;;;;9.55;4.88;;;7.80;99.90;;;6.90;100.00;100812.91;4146618;28;20140;-79
2023/04/24 02:20:08;;;;;;;16.15;4.50;;;7.80;99.90;;;6.98;100.00;100829.66;4136030;28;20069;-79
2023/04/24 02:22:10;;;;;;;19.65;5.82;;;7.80;99.90;;;6.88;100.00;100827.91;4125235;28;20057;-79
2023/04/24 02:24:11;;;;;;;13.38;5.53;;;7.80;99.90;;;6.96;100.00;100831.53;4134967;28;20030;-79
2023/04/24 02:26:12;;;;;;;12.63;4.40;;;7.80;99.90;;;6.78;100.00;100819.19;4130183;28;20030;-80
2023/04/24 02:28:13;;;;;;;14.13;4.75;;;7.70;99.90;;;6.88;100.00;100834.00;4134086;28;20041;-80
2023/04/24 02:30:14;;;;;;;11.70;4.20;;;7.70;99.90;;;6.88;100.00;100835.78;4135155;28;20018;-79
2023/04/24 02:32:15;;;;;;;12.35;5.53;;;7.70;99.90;;;6.82;100.00;100838.91;4127066;28;20042;-79
2023/04/24 02:34:16;;;;;;;12.93;4.65;;;7.70;99.90;;;6.90;100.00;100841.75;4130543;28;20025;-79
2023/04/24 02:36:17;;;;;;;10.68;4.15;;;7.70;99.90;;;6.93;100.00;100842.28;4133426;28;20027;-79
2023/04/24 02:38:18;;;;;;;13.23;4.32;;;7.80;99.90;;;7.01;100.00;100844.28;4131930;28;20498;-79
2023/04/24 02:40:19;;;;;;;13.45;5.05;;;7.80;99.90;;;7.10;100.00;100846.13;4118936;28;20026;-79
2023/04/24 02:42:20;;;;;;;14.55;4.60;;;7.90;99.90;;;7.02;100.00;100827.56;4126155;28;20053;-79
2023/04/24 02:44:22;;;;;;;19.00;5.35;;;7.90;99.90;;;7.14;100.00;100832.59;4135777;28;20122;-79
2023/04/24 02:46:23;;;;;;;14.32;4.63;;;8.00;99.90;;;7.18;100.00;100849.75;4134955;28;20030;-79
2023/04/24 02:48:24;;;;;;;12.30;3.97;;;8.00;99.90;;;7.16;100.00;100849.06;4129682;28;20034;-79
2023/04/24 02:50:25;;;;;;;16.00;5.10;;;8.00;99.90;;;7.13;100.00;100838.00;4134811;28;20084;-78
2023/04/24 02:52:25;;;;;;;11.77;4.43;;;8.00;99.90;;;7.16;100.00;100837.72;4132774;28;20030;-79
2023/04/24 02:54:26;;;;;;;17.35;4.43;;;8.00;99.90;;;7.15;100.00;100834.28;4136045;28;20022;-79
2023/04/24 02:56:27;;;;;;;14.30;5.05;;;8.00;99.90;;;7.27;100.00;100847.28;4134346;28;20034;-78
2023/04/24 02:58:28;;;;;;;11.07;4.18;;;8.10;99.90;;;7.26;100.00;100841.19;4134767;28;20023;-79
2023/04/24 03:00:29;;;;;;;9.02;4.43;;;8.10;99.90;;;7.30;100.00;100839.16;4135012;28;20070;-79
2023/04/24 03:02:30;;;;;;;15.55;4.75;;;8.20;99.90;;;7.35;100.00;100843.03;4150928;28;20030;-79
2023/04/24 03:04:31;;;;;;;13.82;4.50;;;8.20;99.90;;;7.42;100.00;100856.47;4126123;28;20041;-79
2023/04/24 03:06:35;;;;;;;18.05;4.60;;;8.20;99.90;;;7.37;100.00;100843.75;4139169;28;20382;-78
2023/04/24 03:08:36;;;;;;;10.17;4.83;;;8.20;99.90;;;7.40;100.00;100846.09;4139084;28;20520;-79
2023/04/24 03:10:37;;;;;;;11.27;4.63;;;8.30;99.90;;;7.42;100.00;100848.59;4109004;28;20058;-79
2023/04/24 03:12:38;;;;;;;12.02;4.65;;;8.30;99.90;;;7.45;100.00;100849.16;4111744;28;20027;-79
2023/04/24 03:14:38;;;;;;;14.90;4.35;;;8.30;99.90;;;7.45;100.00;100841.28;4132370;28;20065;-79
2023/04/24 03:16:39;;;;;;;11.43;4.10;;;8.30;99.90;;;7.55;100.00;100849.19;4139037;28;20030;-79
2023/04/24 03:18:40;;;;;;;15.43;4.22;;;8.40;99.90;;;7.61;100.00;100853.91;4136162;28;20057;-79
2023/04/24 03:20:41;;;;;;;15.35;5.25;;;8.40;99.90;;;7.55;100.00;100847.41;4122813;28;20030;-79
2023/04/24 03:22:42;;;;;;;11.18;4.18;;;8.40;99.90;;;7.42;100.00;100833.69;4121533;28;20433;-79
2023/04/24 03:24:43;;;;;;;15.27;4.60;;;8.40;99.90;;;7.58;100.00;100843.69;4133953;28;20057;-79
2023/04/24 03:26:44;;;;;;;10.80;3.95;;;8.40;99.90;;;7.56;100.00;100853.47;4136455;28;20033;-79
2023/04/24 03:28:45;;;;;;;12.48;3.95;;;8.40;99.90;;;7.57;100.00;100855.13;4110745;28;20030;-79
2023/04/24 03:30:46;;;;;;;9.00;3.90;;;8.40;99.90;;;7.54;100.00;100853.59;4138701;28;20394;-79
2023/04/24 03:32:47;;;;;;;11.32;4.63;;;8.40;99.90;;;7.46;100.00;100840.31;4137190;28;20033;-79
2023/04/24 03:34:48;;;;;;;17.55;5.50;;;8.40;99.90;;;7.43;100.00;100840.59;4137127;28;20026;-79
2023/04/24 03:36:49;;;;;;;12.50;4.63;;;8.40;99.90;;;7.51;100.00;100864.38;4138950;28;20090;-78
2023/04/24 03:38:50;;;;;;;8.65;4.18;;;8.40;99.90;;;7.42;100.00;100838.09;4137463;28;20074;-79
2023/04/24 03:40:51;;;;;;;13.30;5.20;;;8.40;99.90;;;7.50;100.00;100852.19;4133849;28;20085;-79
2023/04/24 03:42:52;;;;;;;14.43;3.95;;;8.30;99.90;;;7.47;100.00;100847.22;4151559;28;20037;-79
2023/04/24 03:44:53;;;;;;;10.20;3.67;;;8.30;99.90;;;7.50;100.00;100870.56;4126283;28;20085;-79
2023/04/24 03:46:54;;;;;;;12.38;4.13;;;8.30;99.90;;;7.48;100.00;100862.00;4130461;28;20117;-79
2023/04/24 03:48:55;;;;;;;14.43;4.53;;;8.30;99.90;;;7.50;100.00;100857.44;4137320;28;20054;-78
2023/04/24 03:50:56;;;;;;;11.35;3.88;;;8.30;99.90;;;7.41;100.00;100853.00;4136904;28;20037;-78
2023/04/24 03:52:58;;;;;;;7.80;3.97;;;8.20;99.90;;;7.46;100.00;100858.69;4132348;28;20043;-79
2023/04/24 03:54:58;;;;;;;10.23;4.10;;;8.20;99.90;;;7.25;100.00;100844.81;4122333;28;20026;-79
2023/04/24 03:57:01;;;;;;;11.50;4.20;;;8.20;99.90;;;7.27;100.00;100865.66;4132279;28;20034;-79
2023/04/24 03:59:02;;;;;;;8.65;3.25;;;8.10;99.90;;;7.22;100.00;100868.69;4135433;28;20022;-79
2023/04/24 04:01:03;;;;;;;8.13;3.83;;;8.10;99.90;;;7.08;100.00;100863.75;4127362;28;20030;-79
2023/04/24 04:03:04;;;;;;;7.03;3.03;;;8.00;99.90;;;7.12;100.00;100873.03;4137235;28;20083;-79
2023/04/24 04:05:05;;;;;;;8.70;3.65;;;7.90;99.90;;;7.00;100.00;100858.34;4138180;28;20089;-79
2023/04/24 04:07:06;;;;;;;8.02;3.60;;;7.90;99.90;;;7.02;100.00;100859.03;4138330;28;20026;-79
2023/04/24 04:09:08;;;;;;;9.88;4.18;;;7.90;99.90;;;6.95;100.00;100864.00;4138296;28;20034;-78
2023/04/24 04:11:09;;;;;;;10.88;4.13;;;7.90;99.90;;;6.99;100.00;100872.44;4120727;28;20058;-78
2023/04/24 04:13:10;;;;;;;11.32;4.90;;;7.90;99.90;;;7.02;100.00;100882.63;4132175;28;20030;-78
2023/04/24 04:15:11;;;;;;;12.85;4.30;;;7.80;99.90;;;6.96;100.00;100878.75;4136753;28;20047;-79
2023/04/24 04:17:12;;;;;;;13.45;4.20;;;7.80;99.90;;;6.93;100.00;100868.53;4136221;28;20037;-79
2023/04/24 04:19:12;;;;;;;9.50;3.45;;;7.90;99.90;;;6.89;100.00;100871.53;4136953;28;20513;-79
2023/04/24 04:21:13;;;;;;;11.63;3.80;;;7.90;99.90;;;7.00;100.00;100887.19;4136826;28;20098;-79
2023/04/24 04:23:14;;;;;;;8.05;3.33;;;7.80;99.90;;;6.99;100.00;100893.41;4137832;28;20034;-78
2023/04/24 04:25:15;;;;;;;7.90;3.60;;;7.80;99.90;;;6.93;100.00;100880.81;4138033;28;20030;-78
2023/04/24 04:27:18;;;;;;;13.27;3.70;;;7.80;99.90;;;7.12;100.00;100888.78;4137720;28;20065;-78
2023/04/24 04:29:19;;;;;;;8.50;4.10;;;7.90;99.90;;;7.27;100.00;100902.38;4137860;28;20058;-79
2023/04/24 04:31:21;;;;;;;11.20;3.70;;;8.00;99.90;;;7.33;100.00;100896.63;4137743;28;20038;-78
2023/04/24 04:33:22;;;;;;;12.52;4.18;;;8.10;99.90;;;7.34;100.00;100890.41;4136770;28;20031;-79
2023/04/24 04:35:23;;;;;;;10.90;3.78;;;8.20;99.90;;;7.53;100.00;100908.84;4136850;28;20095;-79
2023/04/24 04:37:25;;;;;;;10.98;4.15;;;8.30;99.90;;;7.50;100.00;100896.81;4137972;28;20041;-79
2023/04/24 04:39:26;;;;;;;8.80;2.95;;;8.40;99.90;;;7.60;100.00;100900.31;4137639;28;20045;-78
2023/04/24 04:41:26;;;;;;;7.03;3.55;;;8.40;99.90;;;7.67;100.00;100913.75;4136415;28;20031;-79
2023/04/24 04:43:27;;;;;;;8.00;3.65;;;8.50;99.90;;;7.74;100.00;100910.44;4128946;28;20045;-78
2023/04/24 04:45:28;;;;;;;10.57;3.90;;;8.60;99.90;;;7.73;100.00;100905.34;4145834;28;20425;-78
2023/04/24 04:47:31;;;;;;;10.80;3.22;;;8.60;99.90;;;7.79;100.00;100904.81;4136529;28;20108;-79
2023/04/24 04:49:32;;;;;;;9.07;4.05;;;8.60;99.90;;;7.77;100.00;100910.19;4152848;28;20026;-79
2023/04/24 04:51:34;;;;;;;6.22;3.13;;;8.60;99.90;;;7.78;100.00;100911.84;4136467;28;20026;-78
2023/04/24 04:53:35;;;;;;;6.82;3.55;;;8.60;99.90;;;7.72;100.00;100898.44;4136114;28;20035;-78
2023/04/24 04:55:37;;;;;;;8.57;3.13;;;8.60;99.90;;;7.70;100.00;100905.63;4136273;28;20014;-78
2023/04/24 04:57:38;;;;;;;10.82;3.47;;;8.60;99.90;;;7.77;100.00;100911.97;4130947;28;20026;-78
2023/04/24 04:59:38;;;;;;;8.00;3.58;;;8.60;99.90;;;7.69;100.00;100904.78;4120183;28;20101;-78
2023/04/24 05:01:40;;;;;;;11.10;4.10;;;8.60;99.90;;;7.73;100.00;100908.81;4136248;28;20481;-78
2023/04/24 05:03:41;;;;;;;6.43;3.38;;;8.60;99.90;;;7.82;100.00;100919.47;4136293;28;20027;-78
2023/04/24 05:05:42;;;;;;;8.48;4.13;;;8.60;99.90;;;7.78;100.00;100921.53;4124586;28;20490;-78
2023/04/24 05:07:43;;;;;;;10.13;3.33;;;8.60;99.90;;;7.77;100.00;100911.97;4136065;28;20088;-78
2023/04/24 05:09:44;;;;;;;11.98;3.53;;;8.60;99.90;;;7.86;100.00;100932.19;4136071;28;20037;-78
2023/04/24 05:11:45;;;;;;;10.32;4.20;;;8.60;99.90;;;7.85;100.00;100924.44;4135663;28;20537;-78
2023/04/24 05:13:46;;;;;;;7.63;3.58;;;8.70;99.90;;;7.90;100.00;100938.84;4137117;28;20038;-78
2023/04/24 05:15:47;;;;;;;8.38;3.58;;;8.70;99.90;;;7.96;100.00;100940.09;4152313;28;20516;-78
2023/04/24 05:17:48;;;;;;;10.50;3.45;;;8.80;99.90;;;7.98;100.00;100931.09;4137113;28;20022;-79
2023/04/24 05:19:49;;;;;;;11.40;4.57;;;8.80;99.90;;;8.04;100.00;100940.25;4135898;28;20022;-77
2023/04/24 05:21:49;;;;;;;8.10;2.97;;;8.80;99.90;;;8.05;100.00;100941.91;4132324;28;20026;-77
2023/04/24 05:23:50;;;;;;;7.97;3.30;;;8.90;99.90;;;8.05;100.00;100936.66;4126170;28;20119;-77
2023/04/24 05:25:51;;;;;;;14.98;3.38;;;8.90;99.90;;;8.02;100.00;100931.69;4135676;28;20030;-77
2023/04/24 05:27:53;;;;;;;10.18;3.20;;;8.90;99.90;;;8.06;100.00;100939.16;4134963;28;20022;-77
2023/04/24 05:29:54;;;;;;;7.68;3.45;;;9.00;99.90;;;8.15;100.00;100958.53;4136973;28;20478;-77
2023/04/24 05:31:55;;;;;;;8.65;2.67;;;9.00;99.90;;;8.07;100.00;100934.72;4119994;28;20379;-77
2023/04/24 05:33:56;;;;;;;8.20;2.88;;;8.90;99.90;;;8.22;100.00;100951.75;4128443;28;20042;-77
2023/04/24 05:35:57;;;;;;;6.82;3.30;;;9.00;99.90;;;8.24;100.00;100963.00;4135563;28;20069;-77
2023/04/24 05:37:58;;;;;;;6.20;3.03;;;9.00;99.90;;;8.30;100.00;100951.97;4135763;28;20099;-77
2023/04/24 05:39:59;;;;;;;8.32;3.22;;;9.10;99.90;;;8.34;100.00;100950.69;4135584;28;20018;-77
2023/04/24 05:42:01;;;;;;;12.35;4.18;;;9.10;99.90;;;8.43;100.00;100954.31;4134133;28;20070;-78
2023/04/24 05:44:02;;;;;;;4.63;2.80;;;9.20;99.90;;;8.48;100.00;100952.94;4135443;28;20031;-78
2023/04/24 05:46:02;;;;;;;8.32;3.60;;;9.20;99.90;;;8.44;100.00;100933.16;4120447;28;20408;-78
2023/04/24 05:48:04;;;;;;;10.20;3.30;;;9.30;99.90;;;8.46;100.00;100928.56;4121120;28;20057;-78
2023/04/24 05:50:05;;;;;;;7.55;3.97;;;9.40;99.90;;;8.54;100.00;100931.34;4119376;28;20138;-78
2023/04/24 05:52:08;;;;;;;8.02;3.40;;;9.40;99.90;;;8.52;100.00;100922.78;4136112;28;20027;-78
2023/04/24 05:54:11;;;;;;;7.18;3.10;;;9.40;99.90;;;8.64;100.00;100945.34;4134507;28;20026;-77
2023/04/24 05:56:12;;;;;;;6.30;2.70;;;9.40;99.90;;;8.57;100.00;100936.31;4119937;28;20027;-78
2023/04/24 05:58:14;;;;;;;9.57;3.30;;;9.40;99.90;;;8.46;100.00;100925.13;4120039;28;20019;-78
2023/04/24 06:00:15;;;;;;;10.60;3.50;;;9.40;99.90;;;8.46;100.00;100930.38;4113868;28;20036;-81
2023/04/24 06:02:17;;;;;;;9.43;3.30;;;9.30;99.90;;;8.45;100.00;100949.75;4134517;28;20525;-78
2023/04/24 06:04:18;;;;;;;8.50;3.10;;;9.20;99.90;;;8.43;100.00;100949.03;4131315;28;20030;-77
2023/04/24 06:06:19;;;;;;;5.97;2.38;;;9.20;99.90;;;8.42;100.00;100937.72;4120042;28;20558;-77
2023/04/24 06:08:20;;;;;;;7.55;2.47;;;9.30;99.90;;;8.48;100.00;100942.44;4129646;28;20158;-77
2023/04/24 06:10:21;;;;;;;6.45;2.85;;;9.20;99.90;;;8.50;100.00;100932.59;4132669;28;20018;-77
2023/04/24 06:12:22;;;;;;;7.65;3.17;;;9.30;99.90;;;8.61;100.00;100939.50;4134396;28;20407;-77
2023/04/24 06:14:23;;;;;;;8.27;3.05;;;9.30;99.90;;;8.71;100.00;100946.44;4134809;28;20018;-77
2023/04/24 06:16:24;;;;;;;5.10;2.45;;;9.30;99.90;;;8.70;100.00;100939.50;4135751;28;20035;-77
2023/04/24 06:18:25;;;;;;;7.72;2.83;;;9.40;99.90;;;8.81;100.00;100947.25;4135726;28;20027;-77
2023/04/24 06:20:27;;;;;;;7.18;3.85;;;9.40;99.90;;;8.82;100.00;100943.66;4135837;28;20108;-78
2023/04/24 06:22:28;;;;;;;4.95;2.92;;;9.50;99.90;;;8.84;100.00;100948.81;4134378;28;20134;-78
2023/04/24 06:24:31;;;;;;;6.35;3.30;;;9.50;99.90;;;8.78;100.00;100923.84;4125643;28;20558;-79
2023/04/24 06:26:32;;;;;;;5.90;3.80;;;9.50;99.90;;;8.81;100.00;100926.22;4132511;28;20065;-83
2023/04/24 06:28:33;;;;;;;12.75;3.70;;;9.60;99.90;;;8.80;100.00;100929.84;4134490;28;20383;-83
2023/04/24 06:30:34;;;;;;;6.90;4.10;;;9.60;99.90;;;8.97;100.00;100951.13;4135515;28;20030;-79
2023/04/24 06:32:35;;;;;;;6.82;3.33;;;9.60;99.90;;;9.07;100.00;100946.69;4135395;28;20030;-79
2023/04/24 06:34:36;;;;;;;7.95;3.95;;;9.70;99.90;;;9.21;100.00;100959.38;4135175;28;20564;-78
2023/04/24 06:36:37;;;;;;;8.02;3.72;;;9.80;99.90;;;9.14;100.00;100932.00;4135521;28;20019;-79
2023/04/24 06:38:38;;;;;;;6.25;3.20;;;9.90;99.90;;;9.28;100.00;100932.38;4135635;28;20482;-80
2023/04/24 06:40:39;;;;;;;7.30;3.00;;;10.10;99.90;;;9.48;100.00;100946.28;4133679;28;20033;-79
2023/04/24 06:42:40;;;;;;;6.13;3.00;;;10.20;99.90;;;9.73;100.00;100958.00;4134097;28;20058;-78
2023/04/24 06:44:41;;;;;;;7.15;3.42;;;10.40;99.90;;;9.85;100.00;100952.41;4131545;28;20780;-77
2023/04/24 06:46:42;;;;;;;4.85;2.67;;;10.50;99.90;;;10.13;100.00;100949.72;4119332;28;20039;-78
2023/04/24 06:48:43;;;;;;;5.10;3.15;;;10.70;99.90;;;10.44;100.00;100946.66;4119205;28;20042;-77
2023/04/24 06:50:44;;;;;;;5.45;2.75;;;11.00;99.90;;;10.80;100.00;100957.19;4131273;28;20098;-77
2023/04/24 06:52:45;;;;;;;4.78;2.40;;;11.30;99.90;;;10.94;100.00;100944.28;4122602;28;20070;-78
2023/04/24 06:54:46;;;;;;;6.90;2.97;;;11.50;99.90;;;11.17;99.26;100943.78;4128828;28;20034;-77
2023/04/24 06:56:48;;;;;;;7.78;2.67;;;11.70;99.90;;;11.24;97.25;100935.06;4119017;28;20031;-77
2023/04/24 06:58:49;;;;;;;10.63;2.60;;;11.90;99.90;;;11.38;96.62;100949.53;4118987;28;20027;-77
2023/04/24 07:00:50;;;;;;;6.00;2.80;;;12.00;99.90;;;11.13;95.23;100948.53;4119463;28;20517;-77
2023/04/24 07:02:51;;;;;;;6.60;2.40;;;12.10;99.90;;;11.00;93.98;100937.53;4124467;28;20030;-76
2023/04/24 07:04:52;;;;;;;7.28;2.38;;;12.00;99.90;;;11.21;94.08;100945.94;4131070;28;20394;-76
2023/04/24 07:06:57;;;;;;;8.05;2.00;;;12.00;99.90;;;11.37;94.58;100953.16;4131425;28;20080;-76
2023/04/24 07:09:00;;;;;;;5.80;2.22;;;12.00;99.90;;;11.36;95.62;100943.56;4134610;28;20037;-77
2023/04/24 07:11:01;;;;;;;4.40;2.40;;;12.10;99.90;;;11.40;95.75;100939.63;4135282;28;20026;-77
2023/04/24 07:13:02;;;;;;;5.07;1.92;;;12.10;99.90;;;11.46;95.48;100944.28;4135589;28;20129;-77
2023/04/24 07:15:03;;;;;;;4.35;2.53;;;12.10;99.90;;;11.51;94.41;100953.41;4134242;28;20033;-77
2023/04/24 07:17:06;;;;;;;7.05;2.17;;;12.20;99.90;;;11.33;94.13;100930.66;4134667;28;20101;-77
2023/04/24 07:19:06;;;;;;;7.07;2.72;;;12.20;99.90;;;11.21;94.23;100939.84;4128240;28;20026;-77
2023/04/24 07:21:07;;;;;;;4.68;2.55;;;12.20;99.90;;;11.28;93.51;100951.44;4128675;28;20030;-77
2023/04/24 07:23:08;;;;;;;5.68;2.67;;;12.10;99.90;;;11.17;92.93;100949.88;4134332;28;20038;-77
2023/04/24 07:25:09;;;;;;;7.63;2.85;;;12.10;99.90;;;11.30;93.02;100952.09;4135331;28;20502;-77
2023/04/24 07:27:11;;;;;;;5.15;2.00;;;12.10;99.90;;;11.47;92.99;100956.50;4135809;28;20118;-77
2023/04/24 07:29:13;;;;;;;4.75;2.05;;;12.20;99.90;;;11.46;93.13;100945.13;4134567;28;20085;-77
2023/04/24 07:31:14;;;;;;;7.22;2.35;;;12.30;99.90;;;11.70;92.94;100970.88;4133173;28;20034;-77
2023/04/24 07:33:15;;;;;;;7.50;2.03;;;12.40;99.90;;;11.72;92.89;100963.59;4134507;28;20027;-77
2023/04/24 07:35:16;;;;;;;5.53;2.30;;;12.40;99.90;;;11.63;92.70;100967.16;4117750;28;20030;-77
2023/04/24 07:37:17;;;;;;;4.65;2.10;;;12.40;99.90;;;11.44;92.26;100952.34;4135674;28;20506;-77
2023/04/24 07:39:18;;;;;;;7.32;2.10;;;12.30;99.90;;;11.46;92.61;100976.81;4135832;28;20038;-77
2023/04/24 07:41:20;;;;;;;5.82;2.20;;;12.20;99.90;;;11.42;93.02;100974.63;4134100;28;20100;-77
2023/04/24 07:43:21;;;;;;;7.18;3.53;;;12.20;99.90;;;11.37;93.48;100969.00;4135435;28;20081;-77
2023/04/24 07:45:23;;;;;;;5.28;2.92;;;12.10;99.90;;;11.34;93.86;100964.03;4134241;28;20042;-77
2023/04/24 07:47:24;;;;;;;5.50;3.15;;;12.20;99.90;;;11.42;94.39;100975.47;4130282;28;20097;-77
2023/04/24 07:49:25;;;;;;;7.70;3.58;;;12.20;99.90;;;11.41;94.66;100979.09;4134313;28;20038;-77
2023/04/24 07:51:31;;;;;;;6.55;3.38;;;12.20;99.90;;;11.42;95.75;100982.56;4124316;28;20041;-77
2023/04/24 07:53:32;;;;;;;7.57;3.03;;;12.30;99.90;;;11.35;96.21;100973.63;4137793;28;20069;-77
2023/04/24 07:55:32;;;;;;;6.60;2.70;;;12.20;99.90;;;11.56;96.49;100976.69;4121012;28;20514;-77
2023/04/24 07:57:33;;;;;;;7.35;3.22;;;12.30;99.90;;;11.72;95.87;100984.75;4120445;28;20030;-77
2023/04/24 07:59:34;;;;;;;8.00;2.60;;;12.50;99.90;;;12.05;95.42;100983.09;4137527;28;20389;-77
2023/04/24 08:01:36;;;;;;;7.57;3.30;;;12.70;99.90;;;12.26;93.99;100978.19;4129971;28;20026;-77
2023/04/24 08:03:36;;;;;;;7.28;2.75;;;12.90;99.90;;;12.59;93.85;100981.75;4138327;28;20054;-77
2023/04/24 08:05:38;;;;;;;9.25;2.92;;;13.10;99.90;;;12.76;91.95;100972.81;4120051;28;20031;-77
2023/04/24 08:07:39;;;;;;;6.88;2.83;;;13.40;99.90;;;12.98;91.00;100969.53;4110437;28;20035;-77
2023/04/24 08:09:40;;;;;;;10.82;4.55;;;13.60;99.90;;;13.10;89.96;100965.59;4136151;28;20026;-77
2023/04/24 08:11:41;;;;;;;9.73;4.32;;;13.70;99.90;;;13.42;89.98;100969.16;4136680;28;20033;-77
2023/04/24 08:13:41;;;;;;;7.75;2.95;;;13.90;99.90;;;13.63;88.38;100969.47;4127816;28;20544;-77
2023/04/24 08:15:42;;;;;;;7.38;3.33;;;14.10;99.90;;;13.85;87.59;100976.69;4136862;28;20031;-77
2023/04/24 08:17:44;;;;;;;8.80;3.38;;;14.30;99.90;;;13.92;86.47;100980.28;4137596;28;20081;-78
2023/04/24 08:19:48;;;;;;;8.10;2.80;;;14.50;99.90;;;13.77;84.96;100980.19;4136670;28;20030;-77
2023/04/24 08:21:48;;;;;;;9.43;2.70;;;14.40;99.90;;;13.82;85.55;100975.22;4135785;28;20028;-77
2023/04/24 08:23:49;;;;;;;7.95;2.45;;;14.40;99.90;;;13.83;84.36;100978.66;4138126;28;20034;-77
2023/04/24 08:25:50;;;;;;;8.02;2.90;;;14.50;99.90;;;13.94;84.96;100991.56;4136764;28;20081;-77